Time;durP1;ratioP1;P1;durP2;ratioP2;P2;SDS_P1;SDS_P2;PMS_P1;PMS_P2;Temp;Humidity;BMP_temperature;BMP_pressure;BME280_temperature;BME280_humidity;BME280_pressure;Samples;Min_cycle;Max_cycle;Signal;HPM_P1;HPM_P2
2023/07/17 00:01:32;;;;;;;12.82;11.52;;;;;;;25.72;82.58;94938.28;5089376;28;20198;-43
2023/07/17 00:03:59;;;;;;;12.63;11.40;;;;;;;25.71;83.44;94945.34;5109724;28;20228;-45
2023/07/17 00:06:25;;;;;;;13.38;10.45;;;;;;;25.65;83.30;94945.47;5109766;28;20201;-43
2023/07/17 00:08:52;;;;;;;12.15;10.82;;;;;;;25.60;83.25;94945.31;5110225;28;20185;-44
2023/07/17 00:11:19;;;;;;;14.70;11.50;;;;;;;25.56;83.54;94936.31;5109651;28;20188;-44
2023/07/17 00:13:46;;;;;;;13.45;10.77;;;;;;;25.41;83.38;94915.78;5110290;28;20269;-44
2023/07/17 00:16:13;;;;;;;14.13;11.65;;;;;;;25.50;83.38;94938.81;5109846;28;20226;-44
2023/07/17 00:18:41;;;;;;;12.85;11.25;;;;;;;25.48;84.08;94942.69;5109755;28;20196;-44
2023/07/17 00:21:07;;;;;;;12.45;11.25;;;;;;;25.47;84.81;94949.72;5109828;28;20568;-43
2023/07/17 00:23:34;;;;;;;13.10;11.75;;;;;;;25.40;84.39;94945.63;5109763;28;20337;-45
2023/07/17 00:26:01;;;;;;;13.45;12.07;;;;;;;25.30;84.43;94942.72;5109898;28;20185;-43
2023/07/17 00:28:28;;;;;;;14.43;10.95;;;;;;;25.18;84.94;94940.09;5109643;28;20200;-45
2023/07/17 00:30:54;;;;;;;16.73;11.82;;;;;;;25.10;84.70;94943.03;5110056;28;20203;-45
2023/07/17 00:33:21;;;;;;;14.90;12.20;;;;;;;25.08;85.02;94945.84;5109664;28;20181;-45
2023/07/17 00:35:50;;;;;;;13.48;10.65;;;;;;;25.04;85.61;94947.28;5109723;28;20189;-43
2023/07/17 00:38:16;;;;;;;12.65;11.30;;;;;;;25.02;85.44;94952.72;5109508;28;20185;-43
2023/07/17 00:40:43;;;;;;;12.70;11.45;;;;;;;24.99;85.61;94953.16;5109896;28;20201;-43
2023/07/17 00:43:12;;;;;;;12.63;10.68;;;;;;;24.96;86.23;94956.25;5109751;28;20705;-46
2023/07/17 00:45:40;;;;;;;13.65;11.57;;;;;;;24.95;86.36;94952.00;5110277;28;20644;-45
2023/07/17 00:48:08;;;;;;;13.65;11.27;;;;;;;24.93;86.27;94959.31;5110841;28;20204;-43
2023/07/17 00:50:35;;;;;;;14.15;11.50;;;;;;;24.92;86.47;94962.16;5109853;28;20200;-43
2023/07/17 00:53:04;;;;;;;13.93;12.20;;;;;;;24.90;87.00;94962.34;5109317;28;20299;-44
2023/07/17 00:55:32;;;;;;;13.43;12.18;;;;;;;24.89;87.52;94957.34;5109736;28;20189;-44
2023/07/17 00:58:00;;;;;;;17.83;11.88;;;;;;;24.88;87.06;94951.31;5109463;28;20189;-45
2023/07/17 01:00:27;;;;;;;13.40;11.15;;;;;;;24.85;86.19;94949.13;5109538;28;20197;-45
2023/07/17 01:02:53;;;;;;;15.95;11.63;;;;;;;24.86;85.12;94955.94;5109667;28;20558;-44
2023/07/17 01:05:21;;;;;;;13.10;9.73;;;;;;;24.82;84.00;94957.41;5109919;28;20557;-44
2023/07/17 01:07:47;;;;;;;11.32;10.15;;;;;;;24.82;81.73;94957.41;5109441;28;20196;-44
2023/07/17 01:10:16;;;;;;;11.27;8.85;;;;;;;24.82;80.76;94961.84;5109281;28;20200;-45
2023/07/17 01:12:42;;;;;;;10.60;9.50;;;;;;;24.78;79.98;94953.63;5111836;28;20741;-43
2023/07/17 01:15:10;;;;;;;13.27;9.88;;;;;;;24.72;79.53;94949.28;5112864;28;20691;-46
2023/07/17 01:17:37;;;;;;;10.82;9.43;;;;;;;24.81;79.49;94952.41;5113246;28;20181;-45
2023/07/17 01:20:05;;;;;;;10.18;8.98;;;;;;;24.82;79.34;94946.16;5112899;28;20181;-44
2023/07/17 01:22:36;;;;;;;11.50;10.13;;;;;;;24.79;79.15;94955.25;5112926;28;20311;-42
2023/07/17 01:25:05;;;;;;;9.27;8.38;;;;;;;24.77;78.58;94954.66;5112521;28;20621;-43
2023/07/17 01:27:31;;;;;;;10.00;9.05;;;;;;;24.77;78.13;94952.03;5112714;28;20660;-45
2023/07/17 01:29:58;;;;;;;13.13;9.95;;;;;;;24.75;78.88;94954.88;5112159;28;20228;-44
2023/07/17 01:32:25;;;;;;;10.05;9.02;;;;;;;24.73;78.15;94954.28;5112740;28;20281;-43
2023/07/17 01:34:52;;;;;;;12.35;9.70;;;;;;;24.63;78.43;94946.16;5112647;28;20610;-45
2023/07/17 01:37:18;;;;;;;10.23;9.20;;;;;;;24.69;78.79;94955.75;5112450;28;20193;-44
2023/07/17 01:39:45;;;;;;;11.23;8.80;;;;;;;24.64;77.33;94946.97;5112971;28;20196;-46
2023/07/17 01:42:13;;;;;;;10.30;8.18;;;;;;;24.60;75.80;94941.38;5112823;28;20189;-44
2023/07/17 01:44:40;;;;;;;12.52;8.48;;;;;;;24.63;75.92;94950.59;5112587;28;20304;-44
2023/07/17 01:47:07;;;;;;;9.05;8.25;;;;;;;24.60;75.85;94953.66;5111973;28;20238;-44
2023/07/17 01:49:34;;;;;;;8.65;7.85;;;;;;;24.63;75.92;94955.84;5112888;28;20185;-43
2023/07/17 01:52:01;;;;;;;9.88;7.18;;;;;;;24.61;76.02;94956.06;5111989;28;20189;-44
2023/07/17 01:54:28;;;;;;;9.02;8.18;;;;;;;24.59;76.03;94957.28;5112510;28;20212;-44
2023/07/17 01:56:54;;;;;;;10.70;9.70;;;;;;;24.56;80.15;94958.50;5111854;28;20222;-44
2023/07/17 01:59:23;;;;;;;11.10;10.00;;;;;;;24.12;81.29;94897.59;5112166;28;20692;-44
2023/07/17 02:01:49;;;;;;;14.75;11.82;;;;;;;24.49;82.42;94961.22;5111833;28;20204;-44
2023/07/17 02:04:16;;;;;;;14.35;11.20;;;;;;;24.51;83.45;94971.44;5112052;28;20700;-44
2023/07/17 02:06:43;;;;;;;12.82;11.23;;;;;;;24.44;84.65;94978.56;5111825;28;20193;-45
2023/07/17 02:09:10;;;;;;;12.75;11.55;;;;;;;24.44;84.54;94979.38;5111844;28;20234;-43
2023/07/17 02:11:36;;;;;;;13.68;10.52;;;;;;;24.37;84.90;94976.00;5111619;28;20249;-43
2023/07/17 02:14:03;;;;;;;14.50;11.63;;;;;;;24.39;85.25;94983.63;5112008;28;20185;-42
2023/07/17 02:16:32;;;;;;;12.80;11.50;;;;;;;24.25;85.96;94964.63;5112180;28;20216;-45
2023/07/17 02:18:58;;;;;;;12.68;11.48;;;;;;;24.30;86.69;94977.84;5111911;28;20193;-45
2023/07/17 02:21:25;;;;;;;14.90;11.20;;;;;;;24.28;86.54;94977.28;5111835;28;20196;-44
2023/07/17 02:23:52;;;;;;;13.52;10.68;;;;;;;24.25;86.67;94982.94;5110382;28;20220;-43
2023/07/17 02:26:19;;;;;;;13.38;11.35;;;;;;;24.19;86.62;94982.00;5111749;28;20185;-43
2023/07/17 02:28:46;;;;;;;13.88;10.50;;;;;;;24.14;86.52;94968.78;5111188;28;20236;-45
2023/07/17 02:31:12;;;;;;;12.75;11.18;;;;;;;24.18;86.68;94979.56;5111681;28;20177;-43
2023/07/17 02:33:41;;;;;;;11.77;10.35;;;;;;;24.16;86.82;94982.41;5111505;28;20261;-44
2023/07/17 02:36:07;;;;;;;12.25;10.57;;;;;;;24.13;86.82;94984.66;5111458;28;20200;-44
2023/07/17 02:38:34;;;;;;;12.52;11.02;;;;;;;24.11;86.73;94978.84;5111068;28;20660;-42
2023/07/17 02:41:01;;;;;;;13.30;11.18;;;;;;;24.09;87.14;94983.47;5111195;28;20225;-43
2023/07/17 02:43:28;;;;;;;13.65;11.50;;;;;;;24.02;87.79;94979.13;5111314;28;20209;-45
2023/07/17 02:45:54;;;;;;;17.00;12.23;;;;;;;24.01;87.99;94990.59;5111317;28;20196;-43
2023/07/17 02:48:21;;;;;;;16.27;11.38;;;;;;;24.03;87.77;94987.75;5111051;28;20266;-44
2023/07/17 02:50:52;;;;;;;14.13;11.10;;;;;;;23.99;88.10;94984.75;5110913;28;20544;-45
2023/07/17 02:53:18;;;;;;;14.25;11.80;;;;;;;24.00;88.54;94988.16;5111288;28;20187;-43
2023/07/17 02:55:45;;;;;;;12.70;11.40;;;;;;;24.00;88.83;94982.94;5110922;28;20188;-42
2023/07/17 02:58:16;;;;;;;12.50;11.23;;;;;;;23.95;88.42;94988.81;5111039;28;20245;-44
2023/07/17 03:00:43;;;;;;;15.73;11.85;;;;;;;23.89;88.42;94983.66;5110808;28;20185;-44
2023/07/17 03:03:10;;;;;;;16.08;11.57;;;;;;;23.82;89.32;94988.91;5110893;28;20675;-44
2023/07/17 03:05:37;;;;;;;14.60;11.75;;;;;;;23.72;89.29;94989.41;5110486;28;20520;-44
2023/07/17 03:08:05;;;;;;;13.73;12.20;;;;;;;23.73;89.89;95000.63;5111078;28;20185;-43
2023/07/17 03:10:32;;;;;;;13.85;12.50;;;;;;;23.69;90.22;94995.03;5110644;28;20583;-44
2023/07/17 03:12:59;;;;;;;15.00;13.38;;;;;;;23.66;90.40;94998.09;5110462;28;20196;-44
2023/07/17 03:15:26;;;;;;;16.13;12.63;;;;;;;23.63;90.76;94992.44;5110991;28;20204;-43
2023/07/17 03:17:52;;;;;;;14.30;12.32;;;;;;;23.64;91.31;95004.50;5111014;28;20185;-44
2023/07/17 03:20:19;;;;;;;13.90;12.60;;;;;;;23.66;91.00;95005.09;5111017;28;20237;-44
2023/07/17 03:22:48;;;;;;;15.73;12.98;;;;;;;23.68;90.99;95010.94;5110703;28;20693;-44
2023/07/17 03:25:16;;;;;;;16.33;12.63;;;;;;;23.68;91.32;95013.53;5110564;28;20235;-44
2023/07/17 03:27:42;;;;;;;21.63;13.80;;;;;;;23.70;91.54;95011.50;5110721;28;20193;-46
2023/07/17 03:30:10;;;;;;;15.60;14.00;;;;;;;23.69;91.80;95018.53;5111511;28;20229;-45
2023/07/17 03:32:38;;;;;;;16.55;13.15;;;;;;;23.69;92.52;95008.09;5110821;28;20204;-43
2023/07/17 03:35:06;;;;;;;15.02;13.48;;;;;;;23.69;92.80;95015.94;5110671;28;20257;-43
2023/07/17 03:37:33;;;;;;;17.67;13.55;;;;;;;23.73;92.11;95019.72;5110297;28;20200;-46
2023/07/17 03:39:59;;;;;;;15.20;13.60;;;;;;;23.72;92.65;95012.91;5110488;28;20242;-46
2023/07/17 03:42:28;;;;;;;16.77;13.63;;;;;;;23.77;92.22;95018.28;5110033;28;20238;-45
2023/07/17 03:44:54;;;;;;;19.48;14.55;;;;;;;23.82;92.00;95020.25;5110189;28;20292;-44
2023/07/17 03:47:21;;;;;;;17.20;13.48;;;;;;;23.81;91.82;95020.47;5110355;28;20192;-44
2023/07/17 03:49:48;;;;;;;16.35;14.27;;;;;;;23.84;91.70;95018.25;5110146;28;20189;-45
2023/07/17 03:52:15;;;;;;;16.77;13.90;;;;;;;23.87;91.87;95024.84;5109899;28;20258;-44
2023/07/17 03:54:42;;;;;;;15.90;12.80;;;;;;;23.89;91.65;95026.25;5110365;28;20216;-45
2023/07/17 03:57:09;;;;;;;16.08;13.57;;;;;;;23.94;91.42;95031.63;5109761;28;20185;-45
2023/07/17 03:59:50;;;;;;;16.48;13.15;;;;;;;23.98;91.44;95030.19;5110654;28;20189;-45
2023/07/17 04:02:17;;;;;;;16.35;13.20;;;;;;;24.02;90.90;95033.19;5109735;28;20197;-44
2023/07/17 04:04:43;;;;;;;15.63;13.63;;;;;;;24.06;91.01;95030.97;5110283;28;20258;-46
2023/07/17 04:07:10;;;;;;;13.02;11.65;;;;;;;24.13;90.19;95022.03;5109410;28;20933;-45
2023/07/17 04:09:37;;;;;;;14.90;13.30;;;;;;;24.20;89.67;95041.09;5109948;28;20268;-44
2023/07/17 04:12:05;;;;;;;16.15;13.65;;;;;;;24.23;88.78;95032.03;5109642;28;20250;-43
2023/07/17 04:14:33;;;;;;;16.70;12.52;;;;;;;24.27;88.10;95031.38;5110069;28;20215;-45
2023/07/17 04:17:02;;;;;;;18.65;13.18;;;;;;;24.33;87.45;95028.91;5109925;28;20421;-43
2023/07/17 04:19:28;;;;;;;20.17;13.35;;;;;;;24.33;86.47;95032.31;5110134;28;20226;-44
2023/07/17 04:21:55;;;;;;;13.43;11.60;;;;;;;24.32;84.26;95033.34;5109551;28;20713;-43
2023/07/17 04:24:24;;;;;;;13.93;12.63;;;;;;;24.23;84.35;95040.66;5109569;28;20204;-45
2023/07/17 04:26:52;;;;;;;16.58;12.68;;;;;;;24.25;85.02;95037.81;5109686;28;20185;-46
2023/07/17 04:29:21;;;;;;;11.98;10.73;;;;;;;24.28;85.00;95038.19;5109304;28;20377;-45
2023/07/17 04:31:48;;;;;;;13.30;11.90;;;;;;;24.35;84.64;95045.16;5109377;28;20201;-45
2023/07/17 04:34:16;;;;;;;16.67;12.00;;;;;;;24.38;84.23;95040.34;5109329;28;20207;-44
2023/07/17 04:36:43;;;;;;;15.68;12.50;;;;;;;24.42;84.49;95051.97;5109648;28;20193;-44
2023/07/17 04:39:09;;;;;;;14.75;12.43;;;;;;;24.50;84.28;95050.91;5109161;28;20189;-43
2023/07/17 04:41:36;;;;;;;17.42;12.82;;;;;;;24.55;84.08;95058.91;5109526;28;20181;-45
2023/07/17 04:44:05;;;;;;;14.48;11.63;;;;;;;24.60;83.62;95055.66;5109016;28;20227;-44
2023/07/17 04:46:31;;;;;;;16.70;12.20;;;;;;;23.79;82.54;94924.03;5110704;28;20242;-43
2023/07/17 04:48:58;;;;;;;13.80;11.60;;;;;;;24.69;81.42;95049.91;5113433;28;20204;-44
2023/07/17 04:51:28;;;;;;;12.65;11.02;;;;;;;24.76;81.05;95060.31;5113763;28;20601;-44
2023/07/17 04:53:54;;;;;;;16.13;11.30;;;;;;;24.78;79.76;95056.47;5113251;28;20571;-44
2023/07/17 04:56:21;;;;;;;12.65;11.32;;;;;;;24.82;80.24;95061.25;5114018;28;20211;-46
2023/07/17 04:58:48;;;;;;;12.05;10.77;;;;;;;24.86;78.31;95055.38;5113634;28;20192;-44
2023/07/17 05:01:15;;;;;;;11.57;9.73;;;;;;;24.84;76.81;95052.19;5113355;28;20621;-45
2023/07/17 05:03:41;;;;;;;10.13;9.13;;;;;;;24.85;76.29;95058.22;5113910;28;20634;-45
2023/07/17 05:06:09;;;;;;;11.52;9.73;;;;;;;24.87;76.41;95067.47;5113110;28;20197;-46
2023/07/17 05:08:37;;;;;;;10.43;9.32;;;;;;;24.92;75.39;95064.19;5113230;28;20201;-44
2023/07/17 05:11:04;;;;;;;17.60;9.73;;;;;;;24.94;74.63;95070.78;5113317;28;20193;-45
2023/07/17 05:13:31;;;;;;;13.48;9.30;;;;;;;25.03;74.85;95072.09;5113750;28;20200;-46
2023/07/17 05:15:58;;;;;;;10.50;9.50;;;;;;;25.19;74.54;95065.50;5114063;28;20184;-46
2023/07/17 05:18:25;;;;;;;13.20;9.85;;;;;;;25.54;73.28;95077.97;5114158;28;20188;-46
2023/07/17 05:20:52;;;;;;;17.58;9.88;;;;;;;25.87;70.96;95064.47;5113747;28;20193;-45
2023/07/17 05:23:19;;;;;;;9.88;8.88;;;;;;;26.11;70.51;95070.56;5113492;28;20185;-44
2023/07/17 05:25:54;;;;;;;12.90;8.88;;;;;;;26.61;67.62;95075.44;5112917;28;20205;-45
2023/07/17 05:28:21;;;;;;;12.52;10.73;;;;;;;26.81;65.83;95061.94;5112853;28;20203;-45
2023/07/17 05:30:52;;;;;;;11.45;10.18;;;;;;;27.09;65.42;95071.78;5113009;28;20181;-45
2023/07/17 05:33:18;;;;;;;11.60;9.70;;;;;;;27.42;65.08;95073.75;5113462;28;20276;-43
2023/07/17 05:35:45;;;;;;;12.43;10.18;;;;;;;27.81;63.24;95070.53;5112777;28;20333;-44
2023/07/17 05:38:12;;;;;;;15.15;9.90;;;;;;;28.17;62.09;95083.25;5113099;28;20192;-44
2023/07/17 05:40:39;;;;;;;11.25;9.15;;;;;;;28.41;61.80;95078.69;5113094;28;20196;-44
2023/07/17 05:43:07;;;;;;;17.67;8.98;;;;;;;28.80;60.05;95073.47;5112769;28;20621;-44
2023/07/17 05:45:34;;;;;;;14.77;8.65;;;;;;;29.24;58.41;95079.59;5112875;28;20221;-43
2023/07/17 05:48:01;;;;;;;14.65;9.30;;;;;;;29.54;56.30;95085.47;5112379;28;20192;-45
2023/07/17 05:50:28;;;;;;;11.88;8.30;;;;;;;29.67;55.88;95090.41;5112501;28;20188;-44
2023/07/17 05:52:55;;;;;;;10.52;8.18;;;;;;;29.85;55.51;95084.78;5112135;28;20191;-44
2023/07/17 05:55:21;;;;;;;14.38;10.30;;;;;;;30.06;54.66;95091.06;5112647;28;20203;-45
2023/07/17 05:57:48;;;;;;;9.68;7.85;;;;;;;30.16;54.91;95091.16;5111156;28;20193;-44
2023/07/17 06:00:17;;;;;;;17.10;8.65;;;;;;;30.35;54.50;95096.06;5112150;28;20193;-45
2023/07/17 06:02:45;;;;;;;14.07;8.57;;;;;;;30.42;52.93;95092.16;5112191;28;20584;-45
2023/07/17 06:05:12;;;;;;;12.55;8.95;;;;;;;30.43;52.86;95092.97;5111997;28;20252;-44
2023/07/17 06:07:39;;;;;;;10.82;8.75;;;;;;;30.57;53.02;95098.59;5112019;28;20249;-45
2023/07/17 06:10:07;;;;;;;11.30;8.35;;;;;;;30.74;51.75;95104.56;5112488;28;20192;-44
2023/07/17 06:12:34;;;;;;;12.02;7.80;;;;;;;30.71;51.87;95094.50;5112051;28;20189;-45
2023/07/17 06:15:01;;;;;;;15.40;8.52;;;;;;;30.59;51.61;95093.88;5112275;28;20219;-45
2023/07/17 06:17:29;;;;;;;12.95;8.15;;;;;;;30.48;52.13;95093.00;5112303;28;20185;-45
2023/07/17 06:19:56;;;;;;;12.18;7.28;;;;;;;30.56;51.60;95089.88;5111930;28;20189;-45
2023/07/17 06:22:23;;;;;;;14.07;8.30;;;;;;;30.60;51.49;95082.25;5111668;28;20193;-44
2023/07/17 06:24:50;;;;;;;8.85;7.47;;;;;;;30.82;51.19;95092.72;5111806;28;20309;-42
2023/07/17 06:27:17;;;;;;;9.48;6.70;;;;;;;31.11;50.81;95093.97;5112014;28;20272;-45
2023/07/17 06:29:44;;;;;;;13.68;7.70;;;;;;;31.46;49.97;95079.34;5111584;28;20224;-45
2023/07/17 06:32:11;;;;;;;16.83;7.72;;;;;;;31.87;49.63;95082.94;5111814;28;20232;-44
2023/07/17 06:34:41;;;;;;;11.10;7.68;;;;;;;32.27;48.38;95089.31;5111790;28;20185;-44
2023/07/17 06:37:08;;;;;;;12.10;7.70;;;;;;;32.58;48.57;95087.47;5111637;28;20192;-44
2023/07/17 06:39:35;;;;;;;17.98;7.45;;;;;;;32.94;48.07;95084.78;5111505;28;20625;-45
2023/07/17 06:42:02;;;;;;;10.85;7.45;;;;;;;33.05;46.75;95086.38;5111440;28;20203;-44
2023/07/17 06:44:28;;;;;;;9.85;7.63;;;;;;;33.06;46.57;95084.50;5111313;28;20212;-45
2023/07/17 06:46:55;;;;;;;17.50;9.13;;;;;;;33.06;46.40;95081.84;5111442;28;20204;-45
2023/07/17 06:49:22;;;;;;;9.68;8.02;;;;;;;32.95;46.68;95079.25;5111180;28;20188;-45
2023/07/17 06:51:50;;;;;;;11.82;8.90;;;;;;;32.88;47.81;95077.91;5111329;28;20258;-44
2023/07/17 06:54:17;;;;;;;14.35;10.13;;;;;;;32.90;47.76;95078.41;5111224;28;20656;-45
2023/07/17 06:56:44;;;;;;;13.15;9.40;;;;;;;32.75;48.15;95078.47;5111288;28;20211;-44
2023/07/17 06:59:10;;;;;;;13.70;9.25;;;;;;;32.69;48.40;95078.47;5111020;28;20626;-44
2023/07/17 07:01:37;;;;;;;16.42;9.48;;;;;;;32.70;48.00;95081.91;5110958;28;20197;-44
2023/07/17 07:04:04;;;;;;;16.33;9.70;;;;;;;32.55;47.82;95077.41;5110902;28;20200;-45
2023/07/17 07:06:31;;;;;;;11.30;10.10;;;;;;;31.98;49.05;95036.09;5111873;28;20660;-44
2023/07/17 07:08:59;;;;;;;12.90;9.35;;;;;;;32.00;49.84;95059.66;5111004;28;20188;-45
2023/07/17 07:11:26;;;;;;;12.48;9.60;;;;;;;32.23;49.92;95070.50;5110696;28;20193;-47
2023/07/17 07:13:53;;;;;;;10.20;9.23;;;;;;;32.46;49.73;95073.72;5110764;28;20618;-44
2023/07/17 07:16:20;;;;;;;17.38;10.00;;;;;;;32.59;49.48;95072.38;5110461;28;20196;-44
2023/07/17 07:18:46;;;;;;;19.10;10.23;;;;;;;32.77;49.27;95071.81;5110547;28;20656;-46
2023/07/17 07:21:14;;;;;;;11.32;9.13;;;;;;;33.07;48.34;95065.69;5110570;28;20193;-44
2023/07/17 07:23:41;;;;;;;20.38;9.90;;;;;;;33.34;47.24;95053.94;5110709;28;20650;-44
2023/07/17 07:26:09;;;;;;;19.63;9.60;;;;;;;33.53;46.65;95065.53;5110315;28;20760;-44
2023/07/17 07:28:35;;;;;;;14.60;9.35;;;;;;;33.45;47.10;95064.22;5110484;28;20221;-45
2023/07/17 07:31:02;;;;;;;18.90;10.15;;;;;;;33.48;46.89;95062.13;5110621;28;20298;-45
2023/07/17 07:33:29;;;;;;;16.02;10.57;;;;;;;33.56;46.52;95051.72;5109912;28;20196;-46
2023/07/17 07:35:56;;;;;;;14.65;9.80;;;;;;;33.69;46.91;95058.28;5110476;28;20197;-46
2023/07/17 07:38:23;;;;;;;12.25;9.65;;;;;;;33.92;46.55;95051.50;5110100;28;20687;-46
2023/07/17 07:40:50;;;;;;;19.38;10.70;;;;;;;34.08;45.29;95058.31;5110410;28;20712;-44
2023/07/17 07:43:18;;;;;;;15.23;10.02;;;;;;;33.99;45.71;95059.19;5109961;28;20196;-44
2023/07/17 07:45:45;;;;;;;14.82;9.68;;;;;;;34.03;45.67;95058.38;5110129;28;20225;-43
2023/07/17 07:48:12;;;;;;;10.25;9.25;;;;;;;34.14;45.77;95056.41;5109713;28;20181;-45
2023/07/17 07:50:39;;;;;;;15.07;9.38;;;;;;;34.30;45.61;95051.78;5110443;28;20192;-45
2023/07/17 07:53:06;;;;;;;20.60;10.60;;;;;;;34.31;45.29;95056.03;5110041;28;20269;-46
2023/07/17 07:55:33;;;;;;;19.75;10.05;;;;;;;34.22;45.82;95055.81;5110078;28;20181;-46
2023/07/17 07:57:59;;;;;;;14.43;10.35;;;;;;;34.14;45.53;95061.72;5110007;28;20197;-46
2023/07/17 08:00:28;;;;;;;17.88;9.60;;;;;;;34.20;46.12;95053.47;5110043;28;20193;-45
2023/07/17 08:02:54;;;;;;;19.75;10.57;;;;;;;34.39;45.41;95047.47;5110000;28;20193;-45
2023/07/17 08:05:22;;;;;;;17.52;11.73;;;;;;;34.29;45.53;95047.56;5109844;28;20228;-45
2023/07/17 08:07:49;;;;;;;15.80;11.02;;;;;;;34.12;45.86;95043.44;5110368;28;20246;-45
2023/07/17 08:10:16;;;;;;;15.10;10.45;;;;;;;34.18;46.53;95046.84;5109785;28;20196;-44
2023/07/17 08:12:42;;;;;;;14.43;10.27;;;;;;;34.42;45.78;95046.91;5110119;28;20193;-44
2023/07/17 08:15:10;;;;;;;15.40;10.68;;;;;;;34.44;45.34;95044.75;5109717;28;20193;-45
2023/07/17 08:17:38;;;;;;;21.50;12.40;;;;;;;34.18;45.88;95042.31;5110493;28;20312;-44
2023/07/17 08:20:07;;;;;;;16.88;11.70;;;;;;;33.82;46.56;95038.31;5109721;28;20258;-47
2023/07/17 08:22:34;;;;;;;14.65;11.02;;;;;;;33.70;47.86;95034.13;5113029;28;20279;-46
2023/07/17 08:25:01;;;;;;;20.45;11.30;;;;;;;33.72;47.64;95036.50;5113654;28;20628;-45
2023/07/17 08:27:27;;;;;;;17.85;11.60;;;;;;;33.59;47.74;95029.94;5114081;28;20200;-43
2023/07/17 08:29:54;;;;;;;14.55;11.15;;;;;;;33.64;48.33;95040.53;5113732;28;20243;-44
2023/07/17 08:32:21;;;;;;;15.98;10.80;;;;;;;33.78;47.83;95034.63;5113875;28;20636;-44
2023/07/17 08:34:49;;;;;;;14.25;10.20;;;;;;;34.06;47.49;95033.91;5113787;28;20189;-45
2023/07/17 08:37:16;;;;;;;17.80;11.63;;;;;;;34.35;47.25;95033.16;5113930;28;20285;-45
2023/07/17 08:39:43;;;;;;;13.57;11.73;;;;;;;33.94;46.57;94977.72;5114045;28;20203;-44
2023/07/17 08:42:11;;;;;;;14.90;10.38;;;;;;;34.13;47.00;95029.06;5113995;28;20211;-45
2023/07/17 08:44:38;;;;;;;11.55;10.23;;;;;;;34.23;46.89;95030.84;5114166;28;20208;-44
2023/07/17 08:47:08;;;;;;;19.02;10.95;;;;;;;34.40;46.62;95027.78;5113364;28;20291;-47
2023/07/17 08:49:36;;;;;;;16.10;10.32;;;;;;;34.34;47.20;95032.34;5113867;28;20185;-45
2023/07/17 08:52:06;;;;;;;18.05;11.77;;;;;;;34.24;47.35;95013.84;5113509;28;20189;-45
2023/07/17 08:54:33;;;;;;;16.13;10.77;;;;;;;34.21;46.97;95025.03;5113674;28;20200;-45
2023/07/17 08:57:03;;;;;;;18.80;11.88;;;;;;;34.14;47.27;95013.94;5113377;28;20189;-46
2023/07/17 08:59:32;;;;;;;17.05;10.60;;;;;;;34.17;47.13;95022.16;5113304;28;20729;-43
2023/07/17 09:02:00;;;;;;;11.75;9.80;;;;;;;34.20;47.30;95010.19;5113322;28;20257;-45
2023/07/17 09:04:28;;;;;;;14.60;10.23;;;;;;;34.30;46.97;95012.75;5113397;28;20695;-46
2023/07/17 09:06:55;;;;;;;12.57;10.23;;;;;;;34.33;46.72;95022.81;5113462;28;20217;-46
2023/07/17 09:09:23;;;;;;;12.10;10.10;;;;;;;34.38;46.56;95012.13;5113737;28;20204;-44
2023/07/17 09:12:06;;;;;;;13.48;10.77;;;;;;;34.40;45.90;95015.28;5113237;28;20204;-44
2023/07/17 09:14:33;;;;;;;17.80;10.82;;;;;;;34.45;46.46;95009.13;5113333;28;20197;-46
2023/07/17 09:17:01;;;;;;;18.23;12.85;;;;;;;34.37;45.26;94985.84;5113053;28;20196;-45
2023/07/17 09:19:30;;;;;;;14.07;11.50;;;;;;;34.57;44.94;95011.47;5113301;28;20279;-45
2023/07/17 09:21:59;;;;;;;10.02;9.13;;;;;;;34.60;44.80;95010.91;5113200;28;20268;-45
2023/07/17 09:24:28;;;;;;;11.63;9.63;;;;;;;34.58;44.44;95007.72;5113114;28;20732;-44
2023/07/17 09:26:56;;;;;;;13.40;9.40;;;;;;;34.66;44.51;95009.75;5112923;28;20274;-46
2023/07/17 09:29:24;;;;;;;13.32;10.63;;;;;;;34.68;44.87;95007.63;5113079;28;20250;-45
2023/07/17 09:31:51;;;;;;;10.65;9.13;;;;;;;34.68;44.44;94987.16;5112650;28;20225;-45
2023/07/17 09:34:18;;;;;;;12.63;9.30;;;;;;;34.95;43.90;95002.53;5112969;28;20192;-44
2023/07/17 09:36:49;;;;;;;11.52;8.82;;;;;;;35.14;43.70;94996.47;5112375;28;20189;-44
2023/07/17 09:39:16;;;;;;;10.38;8.70;;;;;;;35.36;42.04;94988.75;5113082;28;20180;-45
2023/07/17 09:41:44;;;;;;;9.02;7.65;;;;;;;35.28;40.76;94981.44;5112617;28;20184;-44
2023/07/17 09:44:17;;;;;;;12.73;8.10;;;;;;;35.22;40.42;94987.88;5112865;28;20185;-46
2023/07/17 09:46:46;;;;;;;8.15;7.35;;;;;;;35.25;40.07;94983.88;5112433;28;20213;-44
2023/07/17 09:49:13;;;;;;;8.20;6.28;;;;;;;35.31;39.20;94990.69;5112583;28;20693;-44
2023/07/17 09:51:40;;;;;;;6.63;5.88;;;;;;;35.32;38.06;94993.06;5112454;28;20193;-44
2023/07/17 09:54:07;;;;;;;7.35;6.65;;;;;;;35.33;38.49;94989.34;5112294;28;20223;-44
2023/07/17 09:56:34;;;;;;;10.18;7.05;;;;;;;35.39;38.18;94982.06;5112833;28;20249;-45
2023/07/17 09:59:12;;;;;;;8.10;7.40;;;;;;;35.44;38.08;94980.13;5112419;28;20193;-45
2023/07/17 10:01:43;;;;;;;8.10;7.22;;;;;;;35.60;38.14;94987.94;5112305;28;20308;-42
2023/07/17 10:04:11;;;;;;;10.20;6.65;;;;;;;35.53;37.55;94974.97;5112663;28;20188;-45
2023/07/17 10:06:42;;;;;;;8.93;6.72;;;;;;;35.61;37.05;94984.97;5112023;28;20612;-47
2023/07/17 10:09:13;;;;;;;8.48;6.72;;;;;;;35.48;37.24;94985.69;5111921;28;20200;-46
2023/07/17 10:11:40;;;;;;;12.38;6.93;;;;;;;35.32;37.34;94969.13;5112558;28;20230;-46
2023/07/17 10:14:08;;;;;;;8.95;6.75;;;;;;;35.38;37.65;94964.53;5111978;28;20284;-43
2023/07/17 10:16:36;;;;;;;8.50;6.90;;;;;;;35.44;37.68;94969.47;5112172;28;20634;-47
2023/07/17 10:19:03;;;;;;;9.32;7.32;;;;;;;35.38;38.33;94970.63;5112131;28;20189;-45
2023/07/17 10:21:30;;;;;;;11.15;7.90;;;;;;;35.34;39.05;94966.97;5112112;28;20192;-45
2023/07/17 10:24:02;;;;;;;10.40;7.38;;;;;;;35.33;37.78;94964.59;5111965;28;20185;-44
2023/07/17 10:26:30;;;;;;;8.63;6.63;;;;;;;35.16;38.41;94965.09;5112155;28;20270;-46
2023/07/17 10:28:58;;;;;;;10.73;6.97;;;;;;;35.09;37.93;94965.44;5111615;28;20270;-45
2023/07/17 10:31:26;;;;;;;11.52;7.00;;;;;;;35.10;38.62;94961.69;5111983;28;20209;-45
2023/07/17 10:33:58;;;;;;;8.38;7.10;;;;;;;35.21;38.16;94964.22;5111780;28;20659;-45
2023/07/17 10:36:39;;;;;;;8.95;7.43;;;;;;;35.25;38.21;94949.28;5111670;28;20200;-44
2023/07/17 10:39:07;;;;;;;8.52;6.90;;;;;;;35.37;37.54;94953.09;5112313;28;20288;-45
2023/07/17 10:41:37;;;;;;;8.90;7.13;;;;;;;35.38;37.56;94951.22;5111778;28;20189;-46
2023/07/17 10:44:06;;;;;;;8.43;6.30;;;;;;;35.33;37.61;94948.66;5110790;28;20196;-46
2023/07/17 10:46:37;;;;;;;7.93;7.15;;;;;;;35.26;37.86;94953.53;5111567;28;20209;-46
2023/07/17 10:49:08;;;;;;;10.65;7.30;;;;;;;34.77;37.65;94890.88;5111526;28;20193;-45
2023/07/17 10:51:35;;;;;;;9.73;7.57;;;;;;;35.03;38.13;94936.56;5111555;28;20193;-45
2023/07/17 10:54:02;;;;;;;9.30;6.57;;;;;;;35.07;37.89;94945.53;5111376;28;20197;-43
2023/07/17 10:56:30;;;;;;;11.13;6.97;;;;;;;35.13;37.71;94944.38;5111632;28;20246;-46
2023/07/17 10:58:57;;;;;;;10.93;7.30;;;;;;;35.19;37.67;94943.22;5111621;28;20185;-46
2023/07/17 11:01:24;;;;;;;8.10;6.88;;;;;;;35.14;37.25;94945.97;5111312;28;20188;-44
2023/07/17 11:03:53;;;;;;;11.40;7.45;;;;;;;35.04;37.13;94928.28;5111001;28;20591;-44
2023/07/17 11:06:20;;;;;;;7.55;6.80;;;;;;;35.17;36.88;94940.06;5111083;28;20224;-46
2023/07/17 11:08:49;;;;;;;7.47;6.78;;;;;;;35.17;37.08;94942.75;5110902;28;20227;-46
2023/07/17 11:11:17;;;;;;;8.48;7.60;;;;;;;35.19;37.33;94936.06;5110883;28;20185;-45
2023/07/17 11:13:45;;;;;;;10.52;7.65;;;;;;;35.25;37.00;94934.13;5110872;28;20216;-46
2023/07/17 11:16:12;;;;;;;7.88;6.50;;;;;;;35.27;37.21;94921.31;5111163;28;20284;-47
2023/07/17 11:18:46;;;;;;;11.70;6.63;;;;;;;35.35;35.95;94923.31;5111254;28;20629;-43
2023/07/17 11:21:16;;;;;;;9.25;6.05;;;;;;;35.26;36.10;94924.28;5110801;28;20656;-45
2023/07/17 11:23:49;;;;;;;8.50;7.30;;;;;;;35.24;36.45;94921.13;5110909;28;20192;-46